sensor_id;sensor_type;location;lat;lon;timestamp;P1;durP1;ratioP1;P2;durP2;ratioP2
35506;SDS011;36461;52.018;21.036;2023-04-03T00:01:27;3.90;;;2.10;;
35506;SDS011;36461;52.018;21.036;2023-04-03T00:03:56;3.70;;;1.90;;
35506;SDS011;36461;52.018;21.036;2023-04-03T00:06:24;3.60;;;1.90;;
35506;SDS011;36461;52.018;21.036;2023-04-03T00:08:53;5.80;;;1.70;;
35506;SDS011;36461;52.018;21.036;2023-04-03T00:11:22;4.10;;;1.90;;
35506;SDS011;36461;52.018;21.036;2023-04-03T00:13:50;2.70;;;1.70;;
35506;SDS011;36461;52.018;21.036;2023-04-03T00:16:19;5.90;;;2.10;;
35506;SDS011;36461;52.018;21.036;2023-04-03T00:18:47;3.40;;;2.10;;
35506;SDS011;36461;52.018;21.036;2023-04-03T00:21:15;4.60;;;2.10;;
35506;SDS011;36461;52.018;21.036;2023-04-03T00:23:43;5.40;;;2.00;;
35506;SDS011;36461;52.018;21.036;2023-04-03T00:26:12;3.80;;;2.10;;
35506;SDS011;36461;52.018;21.036;2023-04-03T00:28:40;4.80;;;1.90;;
35506;SDS011;36461;52.018;21.036;2023-04-03T00:31:08;3.80;;;2.10;;
35506;SDS011;36461;52.018;21.036;2023-04-03T00:33:37;4.10;;;1.90;;
35506;SDS011;36461;52.018;21.036;2023-04-03T00:36:07;4.30;;;1.90;;
35506;SDS011;36461;52.018;21.036;2023-04-03T00:38:37;3.40;;;1.70;;
35506;SDS011;36461;52.018;21.036;2023-04-03T00:41:06;3.80;;;1.80;;
35506;SDS011;36461;52.018;21.036;2023-04-03T00:43:34;6.40;;;2.20;;
35506;SDS011;36461;52.018;21.036;2023-04-03T00:46:03;4.80;;;1.80;;
35506;SDS011;36461;52.018;21.036;2023-04-03T00:48:32;4.00;;;1.90;;
35506;SDS011;36461;52.018;21.036;2023-04-03T00:51:07;4.00;;;1.80;;
35506;SDS011;36461;52.018;21.036;2023-04-03T00:53:41;3.50;;;1.80;;
35506;SDS011;36461;52.018;21.036;2023-04-03T00:56:14;4.20;;;1.70;;
35506;SDS011;36461;52.018;21.036;2023-04-03T00:58:49;4.20;;;1.70;;
35506;SDS011;36461;52.018;21.036;2023-04-03T01:01:37;3.30;;;2.00;;
35506;SDS011;36461;52.018;21.036;2023-04-03T01:04:24;4.80;;;1.80;;
35506;SDS011;36461;52.018;21.036;2023-04-03T01:07:00;2.40;;;1.60;;
35506;SDS011;36461;52.018;21.036;2023-04-03T01:09:32;6.60;;;1.80;;
35506;SDS011;36461;52.018;21.036;2023-04-03T01:14:49;3.70;;;1.70;;
35506;SDS011;36461;52.018;21.036;2023-04-03T01:17:26;2.70;;;1.50;;
35506;SDS011;36461;52.018;21.036;2023-04-03T01:25:47;2.40;;;1.50;;
35506;SDS011;36461;52.018;21.036;2023-04-03T01:28:26;4.20;;;1.90;;
35506;SDS011;36461;52.018;21.036;2023-04-03T01:31:08;4.30;;;1.60;;
35506;SDS011;36461;52.018;21.036;2023-04-03T01:33:44;3.80;;;1.80;;
35506;SDS011;36461;52.018;21.036;2023-04-03T01:36:15;3.20;;;1.50;;
35506;SDS011;36461;52.018;21.036;2023-04-03T01:38:46;3.10;;;1.60;;
35506;SDS011;36461;52.018;21.036;2023-04-03T01:41:14;3.10;;;1.60;;
35506;SDS011;36461;52.018;21.036;2023-04-03T01:43:43;2.80;;;1.40;;
35506;SDS011;36461;52.018;21.036;2023-04-03T01:46:11;4.20;;;1.70;;
35506;SDS011;36461;52.018;21.036;2023-04-03T01:48:40;2.60;;;1.50;;
35506;SDS011;36461;52.018;21.036;2023-04-03T01:51:08;2.90;;;1.40;;
35506;SDS011;36461;52.018;21.036;2023-04-03T01:53:37;3.40;;;1.50;;
35506;SDS011;36461;52.018;21.036;2023-04-03T01:56:05;2.60;;;1.50;;
35506;SDS011;36461;52.018;21.036;2023-04-03T01:58:33;3.70;;;1.60;;
35506;SDS011;36461;52.018;21.036;2023-04-03T02:01:02;5.40;;;1.70;;
35506;SDS011;36461;52.018;21.036;2023-04-03T02:03:30;4.20;;;1.80;;
35506;SDS011;36461;52.018;21.036;2023-04-03T02:05:58;4.00;;;1.40;;
35506;SDS011;36461;52.018;21.036;2023-04-03T02:08:27;2.30;;;1.30;;
35506;SDS011;36461;52.018;21.036;2023-04-03T02:10:55;5.00;;;1.70;;
35506;SDS011;36461;52.018;21.036;2023-04-03T02:13:23;5.70;;;1.70;;
35506;SDS011;36461;52.018;21.036;2023-04-03T02:15:52;4.40;;;1.90;;
35506;SDS011;36461;52.018;21.036;2023-04-03T02:18:20;4.00;;;1.60;;
35506;SDS011;36461;52.018;21.036;2023-04-03T02:20:49;2.70;;;1.30;;
35506;SDS011;36461;52.018;21.036;2023-04-03T02:23:17;3.30;;;1.50;;
35506;SDS011;36461;52.018;21.036;2023-04-03T02:25:45;3.50;;;1.90;;
35506;SDS011;36461;52.018;21.036;2023-04-03T02:28:13;2.90;;;1.60;;
35506;SDS011;36461;52.018;21.036;2023-04-03T02:30:41;2.50;;;1.30;;
35506;SDS011;36461;52.018;21.036;2023-04-03T02:33:10;4.20;;;1.50;;
35506;SDS011;36461;52.018;21.036;2023-04-03T02:35:39;4.90;;;1.50;;
35506;SDS011;36461;52.018;21.036;2023-04-03T02:38:08;2.60;;;1.60;;
35506;SDS011;36461;52.018;21.036;2023-04-03T02:40:36;3.10;;;1.50;;
35506;SDS011;36461;52.018;21.036;2023-04-03T02:43:04;2.80;;;1.30;;
35506;SDS011;36461;52.018;21.036;2023-04-03T02:45:33;4.00;;;1.60;;
35506;SDS011;36461;52.018;21.036;2023-04-03T02:48:01;2.30;;;1.30;;
35506;SDS011;36461;52.018;21.036;2023-04-03T02:50:29;2.40;;;1.40;;
35506;SDS011;36461;52.018;21.036;2023-04-03T02:52:57;3.30;;;1.50;;
35506;SDS011;36461;52.018;21.036;2023-04-03T02:55:25;5.50;;;1.50;;
35506;SDS011;36461;52.018;21.036;2023-04-03T02:57:54;4.20;;;1.60;;
35506;SDS011;36461;52.018;21.036;2023-04-03T03:00:23;3.00;;;1.60;;
35506;SDS011;36461;52.018;21.036;2023-04-03T03:02:50;4.90;;;1.50;;
35506;SDS011;36461;52.018;21.036;2023-04-03T03:05:19;5.10;;;1.70;;
35506;SDS011;36461;52.018;21.036;2023-04-03T03:07:47;4.30;;;1.60;;
35506;SDS011;36461;52.018;21.036;2023-04-03T03:10:15;4.10;;;1.50;;
35506;SDS011;36461;52.018;21.036;2023-04-03T03:12:45;4.50;;;1.40;;
35506;SDS011;36461;52.018;21.036;2023-04-03T03:15:13;2.40;;;1.40;;
35506;SDS011;36461;52.018;21.036;2023-04-03T03:17:43;4.50;;;2.00;;
35506;SDS011;36461;52.018;21.036;2023-04-03T03:20:11;4.30;;;1.30;;
35506;SDS011;36461;52.018;21.036;2023-04-03T03:22:42;5.40;;;2.90;;
35506;SDS011;36461;52.018;21.036;2023-04-03T03:25:10;3.50;;;1.70;;
35506;SDS011;36461;52.018;21.036;2023-04-03T03:27:39;2.80;;;1.40;;
35506;SDS011;36461;52.018;21.036;2023-04-03T03:30:07;3.10;;;1.50;;
35506;SDS011;36461;52.018;21.036;2023-04-03T03:32:36;3.40;;;1.30;;
35506;SDS011;36461;52.018;21.036;2023-04-03T03:35:04;4.50;;;1.60;;
35506;SDS011;36461;52.018;21.036;2023-04-03T03:37:33;4.70;;;1.60;;
35506;SDS011;36461;52.018;21.036;2023-04-03T03:40:01;3.80;;;1.30;;
35506;SDS011;36461;52.018;21.036;2023-04-03T03:42:30;4.30;;;1.40;;
35506;SDS011;36461;52.018;21.036;2023-04-03T03:44:59;2.70;;;1.70;;
35506;SDS011;36461;52.018;21.036;2023-04-03T03:47:27;3.60;;;2.10;;
35506;SDS011;36461;52.018;21.036;2023-04-03T03:49:56;3.30;;;1.60;;
35506;SDS011;36461;52.018;21.036;2023-04-03T03:52:25;2.80;;;1.30;;
35506;SDS011;36461;52.018;21.036;2023-04-03T03:54:54;3.10;;;1.60;;
35506;SDS011;36461;52.018;21.036;2023-04-03T03:57:23;5.00;;;1.50;;
35506;SDS011;36461;52.018;21.036;2023-04-03T03:59:51;3.30;;;1.30;;
35506;SDS011;36461;52.018;21.036;2023-04-03T04:02:20;2.60;;;1.40;;
35506;SDS011;36461;52.018;21.036;2023-04-03T04:04:50;3.30;;;1.40;;
35506;SDS011;36461;52.018;21.036;2023-04-03T04:07:18;4.40;;;1.30;;
35506;SDS011;36461;52.018;21.036;2023-04-03T04:09:47;1.90;;;1.20;;
35506;SDS011;36461;52.018;21.036;2023-04-03T04:12:15;2.40;;;1.40;;
35506;SDS011;36461;52.018;21.036;2023-04-03T04:14:43;2.60;;;1.50;;
35506;SDS011;36461;52.018;21.036;2023-04-03T04:17:15;2.40;;;1.30;;
35506;SDS011;36461;52.018;21.036;2023-04-03T04:19:44;4.10;;;1.60;;
35506;SDS011;36461;52.018;21.036;2023-04-03T04:22:12;5.80;;;1.50;;
35506;SDS011;36461;52.018;21.036;2023-04-03T04:24:41;3.80;;;1.50;;
35506;SDS011;36461;52.018;21.036;2023-04-03T04:27:09;3.00;;;1.60;;
35506;SDS011;36461;52.018;21.036;2023-04-03T04:29:38;3.20;;;1.60;;
35506;SDS011;36461;52.018;21.036;2023-04-03T04:32:06;4.00;;;1.60;;
35506;SDS011;36461;52.018;21.036;2023-04-03T04:34:34;6.70;;;1.50;;
35506;SDS011;36461;52.018;21.036;2023-04-03T04:37:03;3.00;;;1.60;;
35506;SDS011;36461;52.018;21.036;2023-04-03T04:39:32;2.40;;;1.40;;
35506;SDS011;36461;52.018;21.036;2023-04-03T04:42:00;3.40;;;1.50;;
35506;SDS011;36461;52.018;21.036;2023-04-03T04:44:29;2.20;;;1.50;;
35506;SDS011;36461;52.018;21.036;2023-04-03T04:46:57;3.60;;;1.70;;
35506;SDS011;36461;52.018;21.036;2023-04-03T04:49:26;3.90;;;1.50;;
35506;SDS011;36461;52.018;21.036;2023-04-03T04:51:54;5.80;;;1.40;;
35506;SDS011;36461;52.018;21.036;2023-04-03T04:54:27;4.40;;;1.50;;
35506;SDS011;36461;52.018;21.036;2023-04-03T04:56:55;4.10;;;1.50;;
35506;SDS011;36461;52.018;21.036;2023-04-03T04:59:23;3.30;;;1.30;;
35506;SDS011;36461;52.018;21.036;2023-04-03T05:01:53;2.30;;;1.40;;
35506;SDS011;36461;52.018;21.036;2023-04-03T05:04:22;2.10;;;1.30;;
35506;SDS011;36461;52.018;21.036;2023-04-03T05:06:55;3.30;;;1.50;;
35506;SDS011;36461;52.018;21.036;2023-04-03T05:09:25;3.60;;;1.70;;
35506;SDS011;36461;52.018;21.036;2023-04-03T05:11:53;4.40;;;1.40;;
35506;SDS011;36461;52.018;21.036;2023-04-03T05:14:23;4.00;;;1.20;;
35506;SDS011;36461;52.018;21.036;2023-04-03T05:16:52;2.90;;;1.40;;
35506;SDS011;36461;52.018;21.036;2023-04-03T05:19:23;2.70;;;1.50;;
35506;SDS011;36461;52.018;21.036;2023-04-03T05:21:51;4.50;;;1.30;;
35506;SDS011;36461;52.018;21.036;2023-04-03T05:24:20;3.50;;;1.60;;
35506;SDS011;36461;52.018;21.036;2023-04-03T05:26:49;4.20;;;1.40;;
35506;SDS011;36461;52.018;21.036;2023-04-03T05:29:17;5.50;;;1.80;;
35506;SDS011;36461;52.018;21.036;2023-04-03T05:31:46;7.30;;;1.50;;
35506;SDS011;36461;52.018;21.036;2023-04-03T05:34:14;5.20;;;1.50;;
35506;SDS011;36461;52.018;21.036;2023-04-03T05:36:42;2.20;;;1.40;;
35506;SDS011;36461;52.018;21.036;2023-04-03T05:39:13;3.90;;;1.60;;
35506;SDS011;36461;52.018;21.036;2023-04-03T05:41:43;3.00;;;1.60;;
35506;SDS011;36461;52.018;21.036;2023-04-03T05:44:11;3.30;;;1.50;;
35506;SDS011;36461;52.018;21.036;2023-04-03T05:46:40;7.00;;;1.90;;
35506;SDS011;36461;52.018;21.036;2023-04-03T05:49:09;2.90;;;1.80;;
35506;SDS011;36461;52.018;21.036;2023-04-03T05:51:38;4.70;;;1.90;;
35506;SDS011;36461;52.018;21.036;2023-04-03T05:54:21;6.20;;;2.40;;
35506;SDS011;36461;52.018;21.036;2023-04-03T05:56:54;4.20;;;1.80;;
35506;SDS011;36461;52.018;21.036;2023-04-03T05:59:24;5.10;;;1.80;;
35506;SDS011;36461;52.018;21.036;2023-04-03T06:01:53;4.20;;;1.70;;
35506;SDS011;36461;52.018;21.036;2023-04-03T06:04:21;4.60;;;1.80;;
35506;SDS011;36461;52.018;21.036;2023-04-03T06:06:54;5.90;;;1.90;;
35506;SDS011;36461;52.018;21.036;2023-04-03T06:09:26;3.60;;;1.60;;
35506;SDS011;36461;52.018;21.036;2023-04-03T06:11:56;6.00;;;1.80;;
35506;SDS011;36461;52.018;21.036;2023-04-03T06:14:27;3.70;;;2.10;;
35506;SDS011;36461;52.018;21.036;2023-04-03T06:16:55;4.70;;;2.00;;
35506;SDS011;36461;52.018;21.036;2023-04-03T06:19:24;4.30;;;1.80;;
35506;SDS011;36461;52.018;21.036;2023-04-03T06:21:54;4.40;;;2.00;;
35506;SDS011;36461;52.018;21.036;2023-04-03T06:24:23;3.80;;;1.90;;
35506;SDS011;36461;52.018;21.036;2023-04-03T06:26:53;5.40;;;1.80;;
35506;SDS011;36461;52.018;21.036;2023-04-03T06:29:21;3.10;;;1.70;;
35506;SDS011;36461;52.018;21.036;2023-04-03T06:31:50;3.30;;;1.60;;
35506;SDS011;36461;52.018;21.036;2023-04-03T06:34:19;4.00;;;1.50;;
35506;SDS011;36461;52.018;21.036;2023-04-03T06:36:48;3.20;;;1.70;;
35506;SDS011;36461;52.018;21.036;2023-04-03T06:39:17;4.30;;;2.00;;
35506;SDS011;36461;52.018;21.036;2023-04-03T06:41:49;5.00;;;1.90;;
35506;SDS011;36461;52.018;21.036;2023-04-03T06:44:19;4.20;;;1.90;;
35506;SDS011;36461;52.018;21.036;2023-04-03T06:46:47;5.90;;;2.00;;
35506;SDS011;36461;52.018;21.036;2023-04-03T06:49:16;4.50;;;1.90;;
35506;SDS011;36461;52.018;21.036;2023-04-03T06:51:44;3.60;;;2.00;;
35506;SDS011;36461;52.018;21.036;2023-04-03T06:54:12;2.90;;;1.60;;
35506;SDS011;36461;52.018;21.036;2023-04-03T06:56:42;4.00;;;1.80;;
35506;SDS011;36461;52.018;21.036;2023-04-03T06:59:10;3.40;;;1.60;;
35506;SDS011;36461;52.018;21.036;2023-04-03T07:01:41;4.80;;;1.80;;
35506;SDS011;36461;52.018;21.036;2023-04-03T07:04:09;4.80;;;2.10;;
35506;SDS011;36461;52.018;21.036;2023-04-03T07:06:38;5.50;;;2.00;;
35506;SDS011;36461;52.018;21.036;2023-04-03T07:09:06;4.30;;;2.20;;
35506;SDS011;36461;52.018;21.036;2023-04-03T07:11:35;5.70;;;2.10;;
35506;SDS011;36461;52.018;21.036;2023-04-03T07:14:04;3.90;;;1.80;;
35506;SDS011;36461;52.018;21.036;2023-04-03T07:16:33;5.70;;;1.90;;
35506;SDS011;36461;52.018;21.036;2023-04-03T07:19:07;3.90;;;2.10;;
35506;SDS011;36461;52.018;21.036;2023-04-03T07:21:36;5.00;;;2.00;;
35506;SDS011;36461;52.018;21.036;2023-04-03T07:24:05;6.20;;;2.20;;
35506;SDS011;36461;52.018;21.036;2023-04-03T07:26:36;3.90;;;1.90;;
35506;SDS011;36461;52.018;21.036;2023-04-03T07:29:04;7.50;;;2.20;;
35506;SDS011;36461;52.018;21.036;2023-04-03T07:31:32;3.70;;;1.90;;
35506;SDS011;36461;52.018;21.036;2023-04-03T07:34:02;4.70;;;2.10;;
35506;SDS011;36461;52.018;21.036;2023-04-03T07:36:30;5.20;;;2.20;;
35506;SDS011;36461;52.018;21.036;2023-04-03T07:39:01;3.90;;;2.10;;
35506;SDS011;36461;52.018;21.036;2023-04-03T07:41:29;3.40;;;1.70;;
35506;SDS011;36461;52.018;21.036;2023-04-03T07:43:58;4.20;;;1.80;;
35506;SDS011;36461;52.018;21.036;2023-04-03T07:46:26;2.70;;;1.80;;
35506;SDS011;36461;52.018;21.036;2023-04-03T07:48:54;5.30;;;2.40;;
35506;SDS011;36461;52.018;21.036;2023-04-03T07:51:25;4.70;;;2.40;;
35506;SDS011;36461;52.018;21.036;2023-04-03T07:53:54;4.20;;;2.20;;
35506;SDS011;36461;52.018;21.036;2023-04-03T07:56:22;3.50;;;1.40;;
35506;SDS011;36461;52.018;21.036;2023-04-03T07:58:50;3.20;;;1.70;;
35506;SDS011;36461;52.018;21.036;2023-04-03T08:01:18;4.20;;;1.70;;
35506;SDS011;36461;52.018;21.036;2023-04-03T08:03:46;3.70;;;1.70;;
35506;SDS011;36461;52.018;21.036;2023-04-03T08:06:15;3.80;;;1.60;;
35506;SDS011;36461;52.018;21.036;2023-04-03T08:08:46;2.80;;;1.50;;
35506;SDS011;36461;52.018;21.036;2023-04-03T08:11:14;4.10;;;1.90;;
35506;SDS011;36461;52.018;21.036;2023-04-03T08:13:43;1.90;;;1.30;;
35506;SDS011;36461;52.018;21.036;2023-04-03T08:16:13;3.20;;;1.50;;
35506;SDS011;36461;52.018;21.036;2023-04-03T08:18:45;3.50;;;1.60;;
35506;SDS011;36461;52.018;21.036;2023-04-03T08:21:13;4.60;;;1.40;;
35506;SDS011;36461;52.018;21.036;2023-04-03T08:23:41;4.60;;;1.70;;
35506;SDS011;36461;52.018;21.036;2023-04-03T08:26:11;3.30;;;1.60;;
35506;SDS011;36461;52.018;21.036;2023-04-03T08:28:41;2.70;;;1.80;;
35506;SDS011;36461;52.018;21.036;2023-04-03T08:31:10;3.30;;;1.40;;
35506;SDS011;36461;52.018;21.036;2023-04-03T08:33:41;2.10;;;1.40;;
35506;SDS011;36461;52.018;21.036;2023-04-03T08:36:17;3.80;;;1.80;;
35506;SDS011;36461;52.018;21.036;2023-04-03T08:38:48;2.50;;;1.40;;
35506;SDS011;36461;52.018;21.036;2023-04-03T08:41:34;4.70;;;1.40;;
35506;SDS011;36461;52.018;21.036;2023-04-03T08:47:37;2.20;;;1.50;;
35506;SDS011;36461;52.018;21.036;2023-04-03T08:50:15;1.60;;;1.30;;
35506;SDS011;36461;52.018;21.036;2023-04-03T08:52:47;2.30;;;1.40;;
35506;SDS011;36461;52.018;21.036;2023-04-03T08:57:47;3.00;;;1.40;;
35506;SDS011;36461;52.018;21.036;2023-04-03T09:00:20;3.10;;;1.50;;
35506;SDS011;36461;52.018;21.036;2023-04-03T09:02:52;3.10;;;1.50;;
35506;SDS011;36461;52.018;21.036;2023-04-03T09:10:40;2.10;;;1.10;;
35506;SDS011;36461;52.018;21.036;2023-04-03T09:13:22;2.90;;;1.30;;
35506;SDS011;36461;52.018;21.036;2023-04-03T09:16:27;2.60;;;1.60;;
35506;SDS011;36461;52.018;21.036;2023-04-03T09:19:29;3.10;;;1.50;;
35506;SDS011;36461;52.018;21.036;2023-04-03T09:22:19;2.20;;;1.40;;
35506;SDS011;36461;52.018;21.036;2023-04-03T09:24:59;2.30;;;1.30;;
35506;SDS011;36461;52.018;21.036;2023-04-03T09:27:36;3.40;;;1.40;;
35506;SDS011;36461;52.018;21.036;2023-04-03T09:30:05;4.20;;;1.70;;
35506;SDS011;36461;52.018;21.036;2023-04-03T09:32:35;3.60;;;1.50;;
35506;SDS011;36461;52.018;21.036;2023-04-03T09:35:13;4.20;;;1.40;;
35506;SDS011;36461;52.018;21.036;2023-04-03T09:40:47;3.10;;;1.50;;
35506;SDS011;36461;52.018;21.036;2023-04-03T09:45:45;1.90;;;1.30;;
35506;SDS011;36461;52.018;21.036;2023-04-03T09:48:22;2.00;;;1.20;;
35506;SDS011;36461;52.018;21.036;2023-04-03T09:50:58;4.40;;;1.80;;
35506;SDS011;36461;52.018;21.036;2023-04-03T09:58:46;3.00;;;1.20;;
35506;SDS011;36461;52.018;21.036;2023-04-03T10:01:31;3.00;;;1.50;;
35506;SDS011;36461;52.018;21.036;2023-04-03T10:04:06;4.20;;;1.70;;
35506;SDS011;36461;52.018;21.036;2023-04-03T10:06:36;4.30;;;1.80;;
35506;SDS011;36461;52.018;21.036;2023-04-03T10:12:06;2.00;;;1.10;;
35506;SDS011;36461;52.018;21.036;2023-04-03T10:14:40;2.10;;;1.30;;
35506;SDS011;36461;52.018;21.036;2023-04-03T10:22:38;2.70;;;1.40;;
35506;SDS011;36461;52.018;21.036;2023-04-03T10:28:35;2.00;;;1.20;;
35506;SDS011;36461;52.018;21.036;2023-04-03T10:31:18;2.60;;;1.20;;
35506;SDS011;36461;52.018;21.036;2023-04-03T10:45:00;2.00;;;1.30;;
35506;SDS011;36461;52.018;21.036;2023-04-03T10:53:17;2.70;;;1.40;;
35506;SDS011;36461;52.018;21.036;2023-04-03T10:56:00;3.20;;;1.40;;
35506;SDS011;36461;52.018;21.036;2023-04-03T10:58:48;1.50;;;1.10;;
35506;SDS011;36461;52.018;21.036;2023-04-03T11:01:23;4.10;;;1.30;;
35506;SDS011;36461;52.018;21.036;2023-04-03T11:03:59;2.50;;;1.20;;
35506;SDS011;36461;52.018;21.036;2023-04-03T11:06:34;3.20;;;1.20;;
35506;SDS011;36461;52.018;21.036;2023-04-03T11:09:10;3.70;;;1.30;;
35506;SDS011;36461;52.018;21.036;2023-04-03T11:11:56;2.10;;;1.30;;
35506;SDS011;36461;52.018;21.036;2023-04-03T11:14:47;1.90;;;1.20;;
35506;SDS011;36461;52.018;21.036;2023-04-03T11:20:02;2.40;;;1.20;;
35506;SDS011;36461;52.018;21.036;2023-04-03T11:22:48;1.80;;;1.20;;
35506;SDS011;36461;52.018;21.036;2023-04-03T11:25:23;2.40;;;1.30;;
35506;SDS011;36461;52.018;21.036;2023-04-03T11:30:30;1.50;;;1.10;;
35506;SDS011;36461;52.018;21.036;2023-04-03T11:35:59;1.70;;;0.90;;
35506;SDS011;36461;52.018;21.036;2023-04-03T11:38:53;2.20;;;1.20;;
35506;SDS011;36461;52.018;21.036;2023-04-03T11:41:26;2.50;;;1.20;;
35506;SDS011;36461;52.018;21.036;2023-04-03T11:43:58;1.70;;;1.10;;
35506;SDS011;36461;52.018;21.036;2023-04-03T12:00:45;2.70;;;1.30;;
35506;SDS011;36461;52.018;21.036;2023-04-03T12:05:56;1.90;;;1.20;;
35506;SDS011;36461;52.018;21.036;2023-04-03T12:08:28;2.30;;;1.10;;
35506;SDS011;36461;52.018;21.036;2023-04-03T12:39:51;2.00;;;1.40;;
35506;SDS011;36461;52.018;21.036;2023-04-03T12:45:43;1.90;;;1.00;;
35506;SDS011;36461;52.018;21.036;2023-04-03T12:48:17;2.20;;;1.10;;
35506;SDS011;36461;52.018;21.036;2023-04-03T12:50:49;2.00;;;1.50;;
35506;SDS011;36461;52.018;21.036;2023-04-03T12:53:19;2.40;;;1.30;;
35506;SDS011;36461;52.018;21.036;2023-04-03T12:55:56;3.30;;;1.20;;
35506;SDS011;36461;52.018;21.036;2023-04-03T12:58:45;3.20;;;1.30;;
35506;SDS011;36461;52.018;21.036;2023-04-03T13:01:14;3.10;;;1.10;;
35506;SDS011;36461;52.018;21.036;2023-04-03T13:03:47;3.00;;;1.20;;
35506;SDS011;36461;52.018;21.036;2023-04-03T13:06:19;1.50;;;1.10;;
35506;SDS011;36461;52.018;21.036;2023-04-03T13:08:51;2.50;;;1.20;;
35506;SDS011;36461;52.018;21.036;2023-04-03T13:11:21;2.10;;;1.40;;
35506;SDS011;36461;52.018;21.036;2023-04-03T13:14:00;3.20;;;1.30;;
35506;SDS011;36461;52.018;21.036;2023-04-03T13:16:31;2.20;;;0.90;;
35506;SDS011;36461;52.018;21.036;2023-04-03T13:19:01;1.40;;;1.00;;
35506;SDS011;36461;52.018;21.036;2023-04-03T13:21:30;2.20;;;1.20;;
35506;SDS011;36461;52.018;21.036;2023-04-03T13:24:01;2.80;;;1.20;;
35506;SDS011;36461;52.018;21.036;2023-04-03T13:26:42;2.30;;;1.20;;
35506;SDS011;36461;52.018;21.036;2023-04-03T13:29:20;2.60;;;1.50;;
35506;SDS011;36461;52.018;21.036;2023-04-03T13:31:58;1.40;;;1.10;;
35506;SDS011;36461;52.018;21.036;2023-04-03T13:34:29;2.30;;;1.60;;
35506;SDS011;36461;52.018;21.036;2023-04-03T13:37:30;1.80;;;1.30;;
35506;SDS011;36461;52.018;21.036;2023-04-03T13:42:59;1.90;;;1.10;;
35506;SDS011;36461;52.018;21.036;2023-04-03T13:45:28;1.90;;;1.20;;
35506;SDS011;36461;52.018;21.036;2023-04-03T13:48:15;2.50;;;2.10;;
35506;SDS011;36461;52.018;21.036;2023-04-03T13:51:01;3.90;;;1.40;;
35506;SDS011;36461;52.018;21.036;2023-04-03T13:53:32;3.60;;;1.30;;
35506;SDS011;36461;52.018;21.036;2023-04-03T13:58:30;2.50;;;1.30;;
35506;SDS011;36461;52.018;21.036;2023-04-03T14:01:01;2.40;;;1.30;;
35506;SDS011;36461;52.018;21.036;2023-04-03T14:04:00;2.30;;;1.10;;
35506;SDS011;36461;52.018;21.036;2023-04-03T14:06:39;2.20;;;1.30;;
35506;SDS011;36461;52.018;21.036;2023-04-03T14:09:07;1.90;;;1.10;;
35506;SDS011;36461;52.018;21.036;2023-04-03T14:11:35;2.50;;;1.20;;
35506;SDS011;36461;52.018;21.036;2023-04-03T14:14:38;4.70;;;1.30;;
35506;SDS011;36461;52.018;21.036;2023-04-03T14:17:01;1.60;;;1.00;;
35506;SDS011;36461;52.018;21.036;2023-04-03T14:19:52;1.40;;;1.00;;
35506;SDS011;36461;52.018;21.036;2023-04-03T14:22:26;1.50;;;1.00;;
35506;SDS011;36461;52.018;21.036;2023-04-03T14:24:57;4.10;;;1.10;;
35506;SDS011;36461;52.018;21.036;2023-04-03T14:27:32;3.20;;;1.30;;
35506;SDS011;36461;52.018;21.036;2023-04-03T14:32:34;2.50;;;1.30;;
35506;SDS011;36461;52.018;21.036;2023-04-03T14:35:02;2.20;;;1.30;;
35506;SDS011;36461;52.018;21.036;2023-04-03T14:37:31;2.80;;;1.30;;
35506;SDS011;36461;52.018;21.036;2023-04-03T14:40:02;2.40;;;1.20;;
35506;SDS011;36461;52.018;21.036;2023-04-03T14:42:34;1.90;;;1.20;;
35506;SDS011;36461;52.018;21.036;2023-04-03T14:45:05;2.90;;;1.20;;
35506;SDS011;36461;52.018;21.036;2023-04-03T14:47:39;1.80;;;1.20;;
35506;SDS011;36461;52.018;21.036;2023-04-03T14:50:22;3.30;;;1.20;;
35506;SDS011;36461;52.018;21.036;2023-04-03T14:52:54;2.60;;;1.50;;
35506;SDS011;36461;52.018;21.036;2023-04-03T14:55:26;2.50;;;1.30;;
35506;SDS011;36461;52.018;21.036;2023-04-03T14:57:55;2.20;;;1.20;;
35506;SDS011;36461;52.018;21.036;2023-04-03T15:00:23;2.60;;;1.40;;
35506;SDS011;36461;52.018;21.036;2023-04-03T15:02:51;3.30;;;1.20;;
35506;SDS011;36461;52.018;21.036;2023-04-03T15:05:20;3.30;;;1.50;;
35506;SDS011;36461;52.018;21.036;2023-04-03T15:07:57;1.90;;;1.30;;
35506;SDS011;36461;52.018;21.036;2023-04-03T15:10:28;1.80;;;1.20;;
35506;SDS011;36461;52.018;21.036;2023-04-03T15:12:58;2.00;;;1.20;;
35506;SDS011;36461;52.018;21.036;2023-04-03T15:15:28;1.60;;;1.20;;
35506;SDS011;36461;52.018;21.036;2023-04-03T15:17:57;4.90;;;1.50;;
35506;SDS011;36461;52.018;21.036;2023-04-03T15:20:26;2.10;;;1.20;;
35506;SDS011;36461;52.018;21.036;2023-04-03T15:22:58;2.80;;;1.40;;
35506;SDS011;36461;52.018;21.036;2023-04-03T15:25:31;1.90;;;1.20;;
35506;SDS011;36461;52.018;21.036;2023-04-03T15:28:00;3.80;;;2.10;;
35506;SDS011;36461;52.018;21.036;2023-04-03T15:30:28;4.30;;;1.90;;
35506;SDS011;36461;52.018;21.036;2023-04-03T15:32:57;2.70;;;1.90;;
35506;SDS011;36461;52.018;21.036;2023-04-03T15:35:25;3.70;;;2.10;;
35506;SDS011;36461;52.018;21.036;2023-04-03T15:37:53;1.30;;;1.10;;
35506;SDS011;36461;52.018;21.036;2023-04-03T15:40:21;2.90;;;1.40;;
35506;SDS011;36461;52.018;21.036;2023-04-03T15:42:49;3.30;;;1.30;;
35506;SDS011;36461;52.018;21.036;2023-04-03T15:45:20;1.40;;;1.10;;
35506;SDS011;36461;52.018;21.036;2023-04-03T15:47:49;3.30;;;1.40;;
35506;SDS011;36461;52.018;21.036;2023-04-03T15:50:18;3.00;;;1.30;;
35506;SDS011;36461;52.018;21.036;2023-04-03T15:52:46;2.30;;;1.40;;
35506;SDS011;36461;52.018;21.036;2023-04-03T15:55:14;3.60;;;1.60;;
35506;SDS011;36461;52.018;21.036;2023-04-03T15:57:42;2.10;;;1.30;;
35506;SDS011;36461;52.018;21.036;2023-04-03T16:00:10;3.90;;;1.60;;
35506;SDS011;36461;52.018;21.036;2023-04-03T16:02:39;2.60;;;1.60;;
35506;SDS011;36461;52.018;21.036;2023-04-03T16:05:09;2.90;;;1.50;;
35506;SDS011;36461;52.018;21.036;2023-04-03T16:07:38;4.00;;;1.70;;
35506;SDS011;36461;52.018;21.036;2023-04-03T16:10:08;4.60;;;1.40;;
35506;SDS011;36461;52.018;21.036;2023-04-03T16:12:37;4.20;;;1.60;;
35506;SDS011;36461;52.018;21.036;2023-04-03T16:15:06;3.10;;;1.50;;
35506;SDS011;36461;52.018;21.036;2023-04-03T16:17:35;2.40;;;1.30;;
35506;SDS011;36461;52.018;21.036;2023-04-03T16:20:05;3.40;;;2.10;;
35506;SDS011;36461;52.018;21.036;2023-04-03T16:22:34;3.70;;;2.00;;
35506;SDS011;36461;52.018;21.036;2023-04-03T16:25:04;4.20;;;2.10;;
35506;SDS011;36461;52.018;21.036;2023-04-03T16:27:33;4.80;;;2.00;;
35506;SDS011;36461;52.018;21.036;2023-04-03T16:30:02;2.30;;;1.40;;
35506;SDS011;36461;52.018;21.036;2023-04-03T16:32:30;3.00;;;1.80;;
35506;SDS011;36461;52.018;21.036;2023-04-03T16:34:59;2.60;;;1.60;;
35506;SDS011;36461;52.018;21.036;2023-04-03T16:37:28;4.40;;;1.90;;
35506;SDS011;36461;52.018;21.036;2023-04-03T16:39:59;3.80;;;2.10;;
35506;SDS011;36461;52.018;21.036;2023-04-03T16:42:27;2.80;;;1.90;;
35506;SDS011;36461;52.018;21.036;2023-04-03T16:44:55;4.10;;;2.00;;
35506;SDS011;36461;52.018;21.036;2023-04-03T16:47:23;3.30;;;2.30;;
35506;SDS011;36461;52.018;21.036;2023-04-03T16:49:51;6.30;;;2.30;;
35506;SDS011;36461;52.018;21.036;2023-04-03T16:52:19;3.10;;;1.60;;
35506;SDS011;36461;52.018;21.036;2023-04-03T16:54:48;4.20;;;2.40;;
35506;SDS011;36461;52.018;21.036;2023-04-03T16:57:16;3.60;;;2.10;;
35506;SDS011;36461;52.018;21.036;2023-04-03T16:59:44;3.50;;;1.90;;
35506;SDS011;36461;52.018;21.036;2023-04-03T17:02:12;3.70;;;2.20;;